Terminal Aerodrome Forecast
Issued by NWS Omaha/Valley, NE

Home | Current Version | Previous Version | Text Only | Print | Product List | Glossary On
Versions: 1 2 3 4 5 6 7 8 9 10 11 12 13 14 15 16 17 18 19 20 21 22 23 24 25 26 27 28 29 30 31 32 33 34 35 36 37 38 39 40 41 42
000
FTUS43 KOAX 180520
TAFLNK
TAF
KLNK 180520Z 1806/1906 10005KT P6SM SCT050 BKN100
     FM180900 07005KT 6SM -SHRA SCT015 BKN050
      TEMPO 1809/1813 4SM TSRA BKN029CB
     FM181300 10006KT 4SM -SHRA BKN015
     FM181800 16010KT P6SM BKN040 PROB30 1821/1903 4SM TSRA
      BKN025CB=

USA.gov is the U.S. government's official web portal to all federal, state and local government web resources and services.